Open Full Screen Window  High Contrast Mode
Wind Gusting 00 knots
04
August 22, 2014 2:45 AM CDT
Weather Information
Wind Direction
  320 °
Wind Speed
  04 kt (5 mph)
Wind Gust
  00 kt (0 mph)
Altimeter
29.92 in
Visibility
7 SM
Temperature
18° C
64° F
Dewpoint
18° C
64° F
Humidity
100%
1hr Rain Fall
00.00 in.
24hr Rain Fall
00.00 in.
Sky Condition
Clear
VFR

METAR KMDS 220745Z AUTO 32004KT 7SM CLR 18/18 A2992 RMK AO2

*Background is not an actual portrayal of the airport.